Time;durP1;ratioP1;P1;durP2;ratioP2;P2;SDS_P1;SDS_P2;PMS_P1;PMS_P2;Temp;Humidity;BMP_temperature;BMP_pressure;BME280_temperature;BME280_humidity;BME280_pressure;Samples;Min_cycle;Max_cycle;Signal;HPM_P1;HPM_P2
2022/03/24 00:01:29;;;;;;;43.87;20.47;;;;;;;;;;5018109;28;20032;-76
2022/03/24 00:03:55;;;;;;;50.80;20.43;;;;;;;;;;5026510;28;20029;-77
2022/03/24 00:06:20;;;;;;;47.00;20.73;;;;;;;;;;5020290;28;20121;-79
2022/03/24 00:08:46;;;;;;;50.47;21.57;;;;;;;;;;5024473;28;20080;-78
2022/03/24 00:11:14;;;;;;;51.67;21.73;;;;;;;;;;5023369;28;20421;-77
2022/03/24 00:13:40;;;;;;;45.13;20.23;;;;;;;;;;5028649;28;20540;-77
2022/03/24 00:16:05;;;;;;;42.23;19.67;;;;;;;;;;5037816;28;20029;-77
2022/03/24 00:18:32;;;;;;;41.97;21.37;;;;;;;;;;5039379;28;20496;-77
2022/03/24 00:21:01;;;;;;;42.60;20.20;;;;;;;;;;5042176;28;20069;-77
2022/03/24 00:23:28;;;;;;;41.23;20.60;;;;;;;;;;5038520;28;20025;-76
2022/03/24 00:25:54;;;;;;;51.97;20.73;;;;;;;;;;5025410;28;20018;-75
2022/03/24 00:28:20;;;;;;;49.70;21.63;;;;;;;;;;5019227;28;20026;-77
2022/03/24 00:30:47;;;;;;;41.37;20.00;;;;;;;;;;5019847;28;20025;-77
2022/03/24 00:33:13;;;;;;;41.53;18.70;;;;;;;;;;5018889;28;20029;-76
2022/03/24 00:35:38;;;;;;;42.50;21.10;;;;;;;;;;5014840;28;20030;-78
2022/03/24 00:38:07;;;;;;;44.87;20.60;;;;;;;;;;5016423;28;20030;-76
2022/03/24 00:40:34;;;;;;;47.67;21.90;;;;;;;;;;5019299;28;20033;-77
2022/03/24 00:43:01;;;;;;;40.13;18.43;;;;;;;;;;5016949;28;20029;-77
2022/03/24 00:45:29;;;;;;;43.63;21.40;;;;;;;;;;4998912;28;20026;-77
2022/03/24 00:47:54;;;;;;;46.93;20.87;;;;;;;;;;5015988;28;20344;-77
2022/03/24 00:50:20;;;;;;;45.53;21.00;;;;;;;;;;5032481;28;20065;-77
2022/03/24 00:52:46;;;;;;;42.87;21.53;;;;;;;;;;5018223;28;20037;-76
2022/03/24 00:55:19;;;;;;;39.00;20.40;;;;;;;;;;5008435;28;20036;-77
2022/03/24 00:57:49;;;;;;;47.63;22.10;;;;;;;;;;5021847;28;20346;-77
2022/03/24 01:00:16;;;;;;;45.23;21.43;;;;;;;;;;5023876;28;20021;-78
2022/03/24 01:02:48;;;;;;;46.30;22.00;;;;;;;;;;5024738;28;20495;-76
2022/03/24 01:05:18;;;;;;;46.57;21.90;;;;;;;;;;5019396;28;20075;-76
2022/03/24 01:07:46;;;;;;;50.47;22.73;;;;;;;;;;5024584;28;20143;-76
2022/03/24 01:10:17;;;;;;;44.90;20.87;;;;;;;;;;5020157;28;20022;-77
2022/03/24 01:12:44;;;;;;;46.33;20.83;;;;;;;;;;5018494;28;20091;-77
2022/03/24 01:15:11;;;;;;;50.57;22.90;;;;;;;;;;5028648;28;20033;-76
2022/03/24 01:17:38;;;;;;;45.87;21.77;;;;;;;;;;5039653;28;20013;-76
2022/03/24 01:20:05;;;;;;;48.50;21.80;;;;;;;;;;5043520;28;20128;-74
2022/03/24 01:22:31;;;;;;;45.83;21.03;;;;;;;;;;5036335;28;20018;-76
2022/03/24 01:24:59;;;;;;;46.97;23.30;;;;;;;;;;5026497;28;20022;-78
2022/03/24 01:27:26;;;;;;;63.80;23.57;;;;;;;;;;5024244;28;20043;-78
2022/03/24 01:29:54;;;;;;;48.37;21.30;;;;;;;;;;5020538;28;20044;-77
2022/03/24 01:32:20;;;;;;;47.37;20.80;;;;;;;;;;5017780;28;20402;-78
2022/03/24 01:34:46;;;;;;;48.87;23.27;;;;;;;;;;5008047;28;20130;-78
2022/03/24 01:37:12;;;;;;;45.17;21.37;;;;;;;;;;5007298;28;20084;-77
2022/03/24 01:39:38;;;;;;;50.37;22.27;;;;;;;;;;5018387;28;20057;-77
2022/03/24 01:42:05;;;;;;;43.73;22.60;;;;;;;;;;5017763;28;20180;-76
2022/03/24 01:44:31;;;;;;;50.43;20.43;;;;;;;;;;5024210;28;20022;-77
2022/03/24 01:46:59;;;;;;;52.30;22.03;;;;;;;;;;5023427;28;20519;-77
2022/03/24 01:49:29;;;;;;;50.03;21.90;;;;;;;;;;5017390;28;20030;-77
2022/03/24 01:51:56;;;;;;;47.37;21.17;;;;;;;;;;5018889;28;20084;-77
2022/03/24 01:54:23;;;;;;;50.17;21.40;;;;;;;;;;5020249;28;20044;-77
2022/03/24 01:56:50;;;;;;;48.07;21.27;;;;;;;;;;5022017;28;20064;-77
2022/03/24 01:59:17;;;;;;;44.17;20.87;;;;;;;;;;5018991;28;20135;-77
2022/03/24 02:01:44;;;;;;;57.00;21.73;;;;;;;;;;5021878;28;20033;-76
2022/03/24 02:04:10;;;;;;;41.57;21.10;;;;;;;;;;5019881;28;20105;-77
2022/03/24 02:06:36;;;;;;;50.00;22.37;;;;;;;;;;5021869;28;20084;-77
2022/03/24 02:09:04;;;;;;;52.73;22.73;;;;;;;;;;5007361;28;20115;-77
2022/03/24 02:11:39;;;;;;;47.37;21.93;;;;;;;;;;5020287;28;20109;-77
2022/03/24 02:14:05;;;;;;;51.13;22.77;;;;;;;;;;5029160;28;20022;-77
2022/03/24 02:16:34;;;;;;;55.60;20.40;;;;;;;;;;5020935;28;20025;-77
2022/03/24 02:19:10;;;;;;;48.67;22.17;;;;;;;;;;5023958;28;20055;-79
2022/03/24 02:21:37;;;;;;;46.53;20.33;;;;;;;;;;5034662;28;20025;-77
2022/03/24 02:24:03;;;;;;;48.23;19.97;;;;;;;;;;5045774;28;20025;-77
2022/03/24 02:26:28;;;;;;;46.20;20.50;;;;;;;;;;5047464;28;20031;-77
2022/03/24 02:28:55;;;;;;;54.80;22.13;;;;;;;;;;5036809;28;20481;-77
2022/03/24 02:31:22;;;;;;;48.13;20.70;;;;;;;;;;5018967;28;20033;-77
2022/03/24 02:33:48;;;;;;;46.20;20.53;;;;;;;;;;5020179;28;20029;-76
2022/03/24 02:36:13;;;;;;;47.03;20.70;;;;;;;;;;5021459;28;20021;-77
2022/03/24 02:38:39;;;;;;;44.30;21.10;;;;;;;;;;5023009;28;20060;-77
2022/03/24 02:41:05;;;;;;;48.03;21.03;;;;;;;;;;5019116;28;20076;-77
2022/03/24 02:43:31;;;;;;;41.63;19.97;;;;;;;;;;5004392;28;20041;-77
2022/03/24 02:45:57;;;;;;;45.67;21.30;;;;;;;;;;5023220;28;20369;-76
2022/03/24 02:48:22;;;;;;;44.83;20.23;;;;;;;;;;5020685;28;20108;-77
2022/03/24 02:50:49;;;;;;;41.83;20.47;;;;;;;;;;5022985;28;20437;-77
2022/03/24 02:53:16;;;;;;;41.23;19.93;;;;;;;;;;5016491;28;20091;-76
2022/03/24 02:55:41;;;;;;;40.23;19.70;;;;;;;;;;5020166;28;20022;-76
2022/03/24 02:58:08;;;;;;;43.13;20.23;;;;;;;;;;5022741;28;20481;-77
2022/03/24 03:00:35;;;;;;;48.27;20.50;;;;;;;;;;5015661;28;20496;-76
2022/03/24 03:03:00;;;;;;;45.03;20.20;;;;;;;;;;5022970;28;20029;-76
2022/03/24 03:05:26;;;;;;;41.73;20.17;;;;;;;;;;5022064;28;20040;-78
2022/03/24 03:07:51;;;;;;;53.37;20.50;;;;;;;;;;5022222;28;20049;-77
2022/03/24 03:10:17;;;;;;;43.07;18.80;;;;;;;;;;5020486;28;20034;-77
2022/03/24 03:12:44;;;;;;;39.27;18.63;;;;;;;;;;5019222;28;20033;-77
2022/03/24 03:15:10;;;;;;;43.77;20.50;;;;;;;;;;5027739;28;20026;-77
2022/03/24 03:17:36;;;;;;;43.03;20.53;;;;;;;;;;5022566;28;20033;-77
2022/03/24 03:20:03;;;;;;;50.33;20.90;;;;;;;;;;5020477;28;20029;-77
2022/03/24 03:22:29;;;;;;;39.60;19.47;;;;;;;;;;5019382;28;20045;-77
2022/03/24 03:24:55;;;;;;;52.47;20.77;;;;;;;;;;5015400;28;20021;-77
2022/03/24 03:27:21;;;;;;;43.23;19.63;;;;;;;;;;5018518;28;20128;-77
2022/03/24 03:29:47;;;;;;;36.80;19.13;;;;;;;;;;5020360;28;20036;-77
2022/03/24 03:32:13;;;;;;;39.33;18.20;;;;;;;;;;5017582;28;20030;-77
2022/03/24 03:34:41;;;;;;;45.97;20.07;;;;;;;;;;4999141;28;20092;-76
2022/03/24 03:37:07;;;;;;;45.00;20.23;;;;;;;;;;5016116;28;20033;-76
2022/03/24 03:39:34;;;;;;;51.13;21.07;;;;;;;;;;5020096;28;20040;-76
2022/03/24 03:42:00;;;;;;;45.93;19.50;;;;;;;;;;5015693;28;20108;-76
2022/03/24 03:44:26;;;;;;;44.77;20.20;;;;;;;;;;5015297;28;20059;-77
2022/03/24 03:46:52;;;;;;;42.80;19.17;;;;;;;;;;5019321;28;20025;-76
2022/03/24 03:49:20;;;;;;;45.63;18.83;;;;;;;;;;5001800;28;20103;-77
2022/03/24 03:51:46;;;;;;;43.23;19.07;;;;;;;;;;5014162;28;20030;-76
2022/03/24 03:54:12;;;;;;;39.83;17.60;;;;;;;;;;5019423;28;20099;-78
2022/03/24 03:56:38;;;;;;;40.83;19.57;;;;;;;;;;5020921;28;20389;-76
2022/03/24 03:59:05;;;;;;;69.77;21.33;;;;;;;;;;5023496;28;20118;-77
2022/03/24 04:01:30;;;;;;;47.27;19.83;;;;;;;;;;5024908;28;20029;-78
2022/03/24 04:03:57;;;;;;;46.50;18.80;;;;;;;;;;5019193;28;20037;-77
2022/03/24 04:06:24;;;;;;;37.73;18.93;;;;;;;;;;5015799;28;20476;-77
2022/03/24 04:08:50;;;;;;;43.93;19.30;;;;;;;;;;5017702;28;20044;-78
2022/03/24 04:11:16;;;;;;;38.93;18.20;;;;;;;;;;5020753;28;20521;-76
2022/03/24 04:13:43;;;;;;;41.83;18.93;;;;;;;;;;5016807;28;20125;-77
2022/03/24 04:16:13;;;;;;;42.30;17.83;;;;;;;;;;5024262;28;20037;-77
2022/03/24 04:18:43;;;;;;;44.90;18.87;;;;;;;;;;5001014;28;20083;-75
2022/03/24 04:21:10;;;;;;;44.67;18.23;;;;;;;;;;5023602;28;20045;-76
2022/03/24 04:23:40;;;;;;;41.83;18.83;;;;;;;;;;5024080;28;20040;-77
2022/03/24 04:26:06;;;;;;;45.27;18.97;;;;;;;;;;5021797;28;20029;-77
2022/03/24 04:28:32;;;;;;;45.60;18.77;;;;;;;;;;5024310;28;20041;-77
2022/03/24 04:30:58;;;;;;;43.03;19.10;;;;;;;;;;5023083;28;20525;-78
2022/03/24 04:33:24;;;;;;;46.40;19.17;;;;;;;;;;5024191;28;20061;-77
2022/03/24 04:35:50;;;;;;;45.67;19.13;;;;;;;;;;5023071;28;20549;-77
2022/03/24 04:38:16;;;;;;;43.10;20.00;;;;;;;;;;5019386;28;20025;-76
2022/03/24 04:40:41;;;;;;;44.63;18.87;;;;;;;;;;5023487;28;20088;-77
2022/03/24 04:43:07;;;;;;;40.83;16.23;;;;;;;;;;5025606;28;20033;-76
2022/03/24 04:45:33;;;;;;;38.43;17.63;;;;;;;;;;5026577;28;20041;-77
2022/03/24 04:48:01;;;;;;;40.37;18.50;;;;;;;;;;5025241;28;20076;-76
2022/03/24 04:50:27;;;;;;;43.73;17.80;;;;;;;;;;5021806;28;20352;-77
2022/03/24 04:52:53;;;;;;;44.00;18.07;;;;;;;;;;5023081;28;20037;-77
2022/03/24 04:55:20;;;;;;;49.27;18.80;;;;;;;;;;5023209;28;20040;-77
2022/03/24 04:57:46;;;;;;;45.03;17.47;;;;;;;;;;5025084;28;20317;-76
2022/03/24 05:00:14;;;;;;;46.00;18.00;;;;;;;;;;5021581;28;20178;-77
2022/03/24 05:02:41;;;;;;;38.80;18.50;;;;;;;;;;5021240;28;20083;-77
2022/03/24 05:05:08;;;;;;;41.73;18.00;;;;;;;;;;5022134;28;20519;-77
2022/03/24 05:07:36;;;;;;;33.20;17.27;;;;;;;;;;5020990;28;20042;-77
2022/03/24 05:10:03;;;;;;;40.13;16.23;;;;;;;;;;5028645;28;20154;-77
2022/03/24 05:12:30;;;;;;;39.13;17.57;;;;;;;;;;5020748;28;20095;-77
2022/03/24 05:14:56;;;;;;;40.23;16.93;;;;;;;;;;5023533;28;20060;-75
2022/03/24 05:17:22;;;;;;;36.10;17.00;;;;;;;;;;5021903;28;20053;-76
2022/03/24 05:19:48;;;;;;;45.20;18.87;;;;;;;;;;5026216;28;20462;-76
2022/03/24 05:22:14;;;;;;;39.90;16.10;;;;;;;;;;5021771;28;20026;-75
2022/03/24 05:24:41;;;;;;;41.87;18.13;;;;;;;;;;5022251;28;20108;-77
2022/03/24 05:27:07;;;;;;;37.33;18.03;;;;;;;;;;5021492;28;20129;-76
2022/03/24 05:29:33;;;;;;;48.90;18.37;;;;;;;;;;5020707;28;20654;-77
2022/03/24 05:31:59;;;;;;;34.57;17.00;;;;;;;;;;5019469;28;20034;-78
2022/03/24 05:34:25;;;;;;;31.27;16.53;;;;;;;;;;5023063;28;20056;-78
2022/03/24 05:36:51;;;;;;;38.17;16.77;;;;;;;;;;5027611;28;20048;-77
2022/03/24 05:39:17;;;;;;;42.97;17.33;;;;;;;;;;5017988;28;20481;-77
2022/03/24 05:41:43;;;;;;;45.03;18.70;;;;;;;;;;5027489;28;20041;-77
2022/03/24 05:44:08;;;;;;;38.87;16.73;;;;;;;;;;5023229;28;20073;-77
2022/03/24 05:46:41;;;;;;;39.17;18.87;;;;;;;;;;5022189;28;20040;-76
2022/03/24 05:49:08;;;;;;;40.23;18.83;;;;;;;;;;5022417;28;20026;-77
2022/03/24 05:51:35;;;;;;;45.07;20.53;;;;;;;;;;5022897;28;20044;-76
2022/03/24 05:54:03;;;;;;;38.40;17.13;;;;;;;;;;5021784;28;20037;-77
2022/03/24 05:56:29;;;;;;;40.57;18.07;;;;;;;;;;5023347;28;20108;-77
2022/03/24 05:58:56;;;;;;;42.97;17.83;;;;;;;;;;5017799;28;20413;-78
2022/03/24 06:01:24;;;;;;;39.30;16.87;;;;;;;;;;5020476;28;20026;-76
2022/03/24 06:03:51;;;;;;;35.77;17.73;;;;;;;;;;5017906;28;20116;-76
2022/03/24 06:06:17;;;;;;;39.47;17.23;;;;;;;;;;5019525;28;20492;-77
2022/03/24 06:08:43;;;;;;;47.57;18.63;;;;;;;;;;5021812;28;20053;-76
2022/03/24 06:11:13;;;;;;;34.10;16.57;;;;;;;;;;5019689;28;20277;-78
2022/03/24 06:13:40;;;;;;;47.53;19.10;;;;;;;;;;5023873;28;20029;-77
2022/03/24 06:16:07;;;;;;;36.40;17.97;;;;;;;;;;5008895;28;20044;-77
2022/03/24 06:18:32;;;;;;;37.50;16.90;;;;;;;;;;5037248;28;20362;-77
2022/03/24 06:20:59;;;;;;;39.83;18.37;;;;;;;;;;5033594;28;20691;-77
2022/03/24 06:23:26;;;;;;;44.67;17.53;;;;;;;;;;5041507;28;20033;-76
2022/03/24 06:25:53;;;;;;;42.97;17.77;;;;;;;;;;5022664;28;20044;-77
2022/03/24 06:28:19;;;;;;;35.67;17.20;;;;;;;;;;5023500;28;20124;-75
2022/03/24 06:30:44;;;;;;;37.97;18.77;;;;;;;;;;5020500;28;20112;-76
2022/03/24 06:33:10;;;;;;;40.30;18.87;;;;;;;;;;5018640;28;20037;-77
2022/03/24 06:35:36;;;;;;;42.67;19.27;;;;;;;;;;5002619;28;20029;-77
2022/03/24 06:38:02;;;;;;;41.40;18.03;;;;;;;;;;5016902;28;20025;-79
2022/03/24 06:40:28;;;;;;;36.67;17.93;;;;;;;;;;5016413;28;20172;-77
2022/03/24 06:42:55;;;;;;;40.67;19.97;;;;;;;;;;5022405;28;20594;-77
2022/03/24 06:45:21;;;;;;;36.17;17.80;;;;;;;;;;5013983;28;20640;-76
2022/03/24 06:47:46;;;;;;;37.20;18.77;;;;;;;;;;5013025;28;20230;-78
2022/03/24 06:50:13;;;;;;;40.07;16.67;;;;;;;;;;5024653;28;20453;-76
2022/03/24 06:52:43;;;;;;;41.47;19.13;;;;;;;;;;5021665;28;20498;-78
2022/03/24 06:55:12;;;;;;;73.40;19.90;;;;;;;;;;5022245;28;20037;-77
2022/03/24 06:57:40;;;;;;;40.00;18.73;;;;;;;;;;5027159;28;20033;-78
2022/03/24 07:00:13;;;;;;;39.30;17.40;;;;;;;;;;5023548;28;20396;-77
2022/03/24 07:02:46;;;;;;;39.13;18.53;;;;;;;;;;5028122;28;20159;-77
2022/03/24 07:05:15;;;;;;;36.93;17.73;;;;;;;;;;5024359;28;20108;-76
2022/03/24 07:07:44;;;;;;;38.77;18.87;;;;;;;;;;5027266;28;20061;-78
2022/03/24 07:10:11;;;;;;;42.63;18.57;;;;;;;;;;5025318;28;20037;-78
2022/03/24 07:12:38;;;;;;;42.80;18.57;;;;;;;;;;5022095;28;20397;-77
2022/03/24 07:15:12;;;;;;;45.30;19.40;;;;;;;;;;5017302;28;20037;-78
2022/03/24 07:17:38;;;;;;;44.10;18.43;;;;;;;;;;5024612;28;20037;-78
2022/03/24 07:20:06;;;;;;;36.87;17.53;;;;;;;;;;5025328;28;20052;-78
2022/03/24 07:22:33;;;;;;;45.97;18.83;;;;;;;;;;5021574;28;20124;-79
2022/03/24 07:25:05;;;;;;;36.60;18.27;;;;;;;;;;5022484;28;20029;-79
2022/03/24 07:27:34;;;;;;;42.95;18.33;;;;;;;;;;5021326;28;20065;-77
2022/03/24 07:30:01;;;;;;;41.63;18.30;;;;;;;;;;5013888;28;20381;-79
2022/03/24 07:32:28;;;;;;;40.30;18.43;;;;;;;;;;5017720;28;20022;-79
2022/03/24 07:34:54;;;;;;;39.73;18.50;;;;;;;;;;5016779;28;20112;-78
2022/03/24 07:37:26;;;;;;;40.70;19.00;;;;;;;;;;5020656;28;20088;-78
2022/03/24 07:39:52;;;;;;;45.70;18.27;;;;;;;;;;5026169;28;20025;-78
2022/03/24 07:42:18;;;;;;;39.17;20.00;;;;;;;;;;5028707;28;20426;-79
2022/03/24 07:44:45;;;;;;;42.23;19.30;;;;;;;;;;5030430;28;20108;-79
2022/03/24 07:47:11;;;;;;;45.07;19.30;;;;;;;;;;5034920;28;20017;-78
2022/03/24 07:49:37;;;;;;;40.60;20.80;;;;;;;;;;5035870;28;20037;-78
2022/03/24 07:52:08;;;;;;;55.83;19.87;;;;;;;;;;5039982;28;20025;-77
2022/03/24 07:54:59;;;;;;;47.53;21.83;;;;;;;;;;5036839;28;20029;-78
2022/03/24 07:57:30;;;;;;;47.23;21.87;;;;;;;;;;5018198;28;20041;-79
2022/03/24 07:59:58;;;;;;;47.13;21.40;;;;;;;;;;5024788;28;20485;-78
2022/03/24 08:02:24;;;;;;;45.50;20.47;;;;;;;;;;5016502;28;20153;-78
2022/03/24 08:04:53;;;;;;;50.77;19.93;;;;;;;;;;5016252;28;20456;-79
2022/03/24 08:07:26;;;;;;;46.17;20.43;;;;;;;;;;5014510;28;20081;-78
2022/03/24 08:09:52;;;;;;;43.33;20.30;;;;;;;;;;5017013;28;20062;-77
2022/03/24 08:12:21;;;;;;;52.47;20.23;;;;;;;;;;5015055;28;20033;-76
2022/03/24 08:14:47;;;;;;;42.43;19.87;;;;;;;;;;5017531;28;20037;-76
2022/03/24 08:17:18;;;;;;;50.20;21.90;;;;;;;;;;5013703;28;20025;-76
2022/03/24 08:19:48;;;;;;;45.15;19.95;;;;;;;;;;5018662;28;20040;-79
2022/03/24 08:22:15;;;;;;;48.47;20.33;;;;;;;;;;5012662;28;20034;-77
2022/03/24 08:24:41;;;;;;;38.60;19.43;;;;;;;;;;5016890;28;20552;-78
2022/03/24 08:27:12;;;;;;;41.83;20.17;;;;;;;;;;5025600;28;20013;-77
2022/03/24 08:29:40;;;;;;;45.25;20.73;;;;;;;;;;5019425;28;20029;-78
2022/03/24 08:32:07;;;;;;;53.40;22.43;;;;;;;;;;5016447;28;20146;-77
2022/03/24 08:34:34;;;;;;;45.80;20.60;;;;;;;;;;5019122;28;20556;-77
2022/03/24 08:37:00;;;;;;;41.50;20.50;;;;;;;;;;5018442;28;20651;-78
2022/03/24 08:39:26;;;;;;;45.83;20.57;;;;;;;;;;5010204;28;20052;-79
2022/03/24 08:41:53;;;;;;;49.70;21.60;;;;;;;;;;5013764;28;20371;-77
2022/03/24 08:44:19;;;;;;;42.97;20.27;;;;;;;;;;5009903;28;20319;-78
2022/03/24 08:46:45;;;;;;;44.50;22.03;;;;;;;;;;5015221;28;20121;-77
2022/03/24 08:49:11;;;;;;;35.10;20.77;;;;;;;;;;5012788;28;20120;-77
2022/03/24 08:51:41;;;;;;;41.73;22.67;;;;;;;;;;5015153;28;20068;-78
2022/03/24 08:54:08;;;;;;;51.40;22.10;;;;;;;;;;5011432;28;20042;-78
2022/03/24 09:14:03;;;;;;;48.47;22.98;;;;;;;;;;4998829;28;20123;-77
2022/03/24 09:16:28;;;;;;;46.90;21.92;;;;;;;;;;5030492;28;20033;-78
2022/03/24 09:18:55;;;;;;;40.13;21.42;;;;;;;;;;5020589;28;20538;-78
2022/03/24 09:21:23;;;;;;;43.90;21.27;;;;;;;;;;5011365;28;20446;-77
2022/03/24 09:23:53;;;;;;;41.20;20.80;;;;;;;;;;5016363;28;20021;-76
2022/03/24 09:26:19;;;;;;;40.03;21.75;;;;;;;;;;5014042;28;20025;-77
2022/03/24 09:28:51;;;;;;;43.17;21.75;;;;;;;;;;5021956;28;20021;-77
2022/03/24 09:31:17;;;;;;;38.70;20.60;;;;;;;;;;5001422;28;20094;-79
2022/03/24 09:33:43;;;;;;;45.67;21.55;;;;;;;;;;5017246;28;20029;-78
2022/03/24 09:36:09;;;;;;;41.78;21.17;;;;;;;;;;5017511;28;20068;-77
2022/03/24 09:38:35;;;;;;;36.08;19.85;;;;;;;;;;5016345;28;20041;-78
2022/03/24 09:41:02;;;;;;;41.33;21.60;;;;;;;;;;5020743;28;20531;-77
2022/03/24 09:43:39;;;;;;;56.88;22.00;;;;;;;;;;5018880;28;20029;-78
2022/03/24 09:46:05;;;;;;;39.47;20.55;;;;;;;;;;5016234;28;20069;-78
2022/03/24 09:48:31;;;;;;;43.95;21.83;;;;;;;;;;5019341;28;20167;-76
2022/03/24 09:50:57;;;;;;;57.63;22.73;;;;;;;;;;5019994;28;20041;-78
2022/03/24 09:53:23;;;;;;;39.70;20.50;;;;;;;;;;5022763;28;20541;-78
2022/03/24 09:55:50;;;;;;;38.90;20.88;;;;;;;;;;5012662;28;20025;-76
2022/03/24 09:58:16;;;;;;;40.65;21.38;;;;;;;;;;5017283;28;20095;-76
2022/03/24 10:00:43;;;;;;;41.67;22.23;;;;;;;;;;5018213;28;20018;-76
2022/03/24 10:03:22;;;;;;;44.45;21.40;;;;;;;;;;5017821;28;20029;-76
2022/03/24 10:05:58;;;;;;;40.35;22.10;;;;;;;;;;5012547;28;20029;-77
2022/03/24 10:08:27;;;;;;;37.30;21.10;;;;;;;;;;5018774;28;20414;-77
2022/03/24 10:11:11;;;;;;;37.95;20.90;;;;;;;;;;5025039;28;20144;-77
2022/03/24 10:13:54;;;;;;;47.00;22.38;;;;;;;;;;5021493;28;20151;-78
2022/03/24 10:16:37;;;;;;;38.40;20.33;;;;;;;;;;5017118;28;20029;-79
2022/03/24 10:19:15;;;;;;;39.33;21.02;;;;;;;;;;5027233;28;20048;-78
2022/03/24 10:21:48;;;;;;;42.30;20.90;;;;;;;;;;5023745;28;20045;-75
2022/03/24 10:24:20;;;;;;;46.00;22.13;;;;;;;;;;5021642;28;20097;-78
2022/03/24 10:26:47;;;;;;;;;;;;;;;;;;5021519;28;20060;-76
2022/03/24 10:29:16;;;;;;;41.72;19.92;;;;;;;;;;5033229;28;19971;-76
2022/03/24 10:31:50;;;;;;;37.45;20.88;;;;;;;;;;5032043;28;20034;-77
2022/03/24 10:34:26;;;;;;;42.67;21.50;;;;;;;;;;5021433;28;20026;-78
2022/03/24 10:36:52;;;;;;;37.00;19.15;;;;;;;;;;5016081;28;20041;-78
2022/03/24 10:39:23;;;;;;;43.67;21.45;;;;;;;;;;5019420;28;20139;-79
2022/03/24 10:41:49;;;;;;;46.60;21.05;;;;;;;;;;5021707;28;20104;-79
2022/03/24 10:44:15;;;;;;;39.75;20.17;;;;;;;;;;5015878;28;20116;-78
2022/03/24 10:46:43;;;;;;;41.13;20.50;;;;;;;;;;5015422;28;20072;-77
2022/03/24 10:49:27;;;;;;;38.72;22.17;;;;;;;;;;5012834;28;20037;-76
2022/03/24 10:51:56;;;;;;;37.35;20.83;;;;;;;;;;5012916;28;20512;-79
2022/03/24 10:54:48;;;;;;;38.80;21.27;;;;;;;;;;5014601;28;20103;-79
2022/03/24 10:57:17;;;;;;;38.38;20.63;;;;;;;;;;5016237;28;20033;-78
2022/03/24 10:59:46;;;;;;;36.88;20.52;;;;;;;;;;5016626;28;20398;-77
2022/03/24 11:02:13;;;;;;;43.95;22.13;;;;;;;;;;5016215;28;20031;-77
2022/03/24 11:04:39;;;;;;;38.33;21.65;;;;;;;;;;4998903;28;20349;-77
2022/03/24 11:07:05;;;;;;;43.08;21.83;;;;;;;;;;5015028;28;20037;-79
2022/03/24 11:09:33;;;;;;;40.25;20.15;;;;;;;;;;5014249;28;20037;-79
2022/03/24 11:12:36;;;;;;;39.05;19.95;;;;;;;;;;5015617;28;20037;-79
2022/03/24 11:15:05;;;;;;;39.20;21.30;;;;;;;;;;5018320;28;20051;-77
2022/03/24 11:17:36;;;;;;;40.60;21.33;;;;;;;;;;5019855;28;20603;-77
2022/03/24 11:20:17;;;;;;;41.15;20.88;;;;;;;;;;5019843;28;20038;-78
2022/03/24 11:22:55;;;;;;;38.45;20.33;;;;;;;;;;5024208;28;20034;-79
2022/03/24 11:25:24;;;;;;;38.20;21.38;;;;;;;;;;5024615;28;20040;-78
2022/03/24 11:27:53;;;;;;;43.25;22.40;;;;;;;;;;5025306;28;20083;-78
2022/03/24 11:30:22;;;;;;;39.92;20.90;;;;;;;;;;5019902;28;20041;-78
2022/03/24 11:32:52;;;;;;;39.58;20.77;;;;;;;;;;5016364;28;20025;-78
2022/03/24 11:35:18;;;;;;;52.72;21.92;;;;;;;;;;5013424;28;20037;-78
2022/03/24 11:37:44;;;;;;;37.17;21.40;;;;;;;;;;5016027;28;20187;-79
2022/03/24 11:40:25;;;;;;;39.38;20.90;;;;;;;;;;5018030;28;20812;-79
2022/03/24 11:43:14;;;;;;;44.00;20.40;;;;;;;;;;5014968;28;20131;-79
2022/03/24 11:45:52;;;;;;;36.97;20.17;;;;;;;;;;5013137;28;20498;-78
2022/03/24 11:48:30;;;;;;;34.72;21.02;;;;;;;;;;5010602;28;20029;-79
2022/03/24 11:50:55;;;;;;;41.60;20.63;;;;;;;;;;5018519;28;20342;-79
2022/03/24 11:53:27;;;;;;;39.17;19.52;;;;;;;;;;5016473;28;20033;-78
2022/03/24 11:55:59;;;;;;;37.88;21.40;;;;;;;;;;5013534;28;20035;-78
2022/03/24 11:58:27;;;;;;;40.38;21.88;;;;;;;;;;5015588;28;20055;-79
2022/03/24 12:00:57;;;;;;;35.10;20.88;;;;;;;;;;5016160;28;20034;-78
2022/03/24 12:03:52;;;;;;;37.20;20.95;;;;;;;;;;4999734;28;20040;-79
2022/03/24 12:06:19;;;;;;;35.60;20.17;;;;;;;;;;5005731;28;20226;-79
2022/03/24 12:08:49;;;;;;;36.00;19.98;;;;;;;;;;5016127;28;20091;-79
2022/03/24 12:11:40;;;;;;;37.95;20.13;;;;;;;;;;5018686;28;20497;-79
2022/03/24 12:14:17;;;;;;;38.33;19.83;;;;;;;;;;4997199;28;20907;-78
2022/03/24 12:16:51;;;;;;;35.22;20.35;;;;;;;;;;5020246;28;20037;-79
2022/03/24 12:19:38;;;;;;;41.00;21.40;;;;;;;;;;5033323;28;20034;-77
2022/03/24 12:22:25;;;;;;;41.60;20.05;;;;;;;;;;5027510;28;20041;-78
2022/03/24 12:24:56;;;;;;;35.70;20.23;;;;;;;;;;5023599;28;20464;-79
2022/03/24 12:27:21;;;;;;;34.85;20.92;;;;;;;;;;5015280;28;20120;-78
2022/03/24 12:30:13;;;;;;;34.75;20.80;;;;;;;;;;5013333;28;20125;-78
2022/03/24 12:32:39;;;;;;;;;;;;;;;;;;5018503;28;20030;-78
2022/03/24 12:35:09;;;;;;;32.03;19.23;;;;;;;;;;5014705;28;19921;-77
2022/03/24 12:37:42;;;;;;;32.75;19.15;;;;;;;;;;5010658;28;20064;-80
2022/03/24 12:40:12;;;;;;;34.15;18.98;;;;;;;;;;5017100;28;20500;-79
2022/03/24 12:42:45;;;;;;;33.28;20.17;;;;;;;;;;5022556;28;20120;-79
2022/03/24 12:45:17;;;;;;;44.05;21.05;;;;;;;;;;5015380;28;20126;-77
2022/03/24 12:47:55;;;;;;;36.83;21.50;;;;;;;;;;5017856;28;20029;-78
2022/03/24 12:50:45;;;;;;;33.35;18.70;;;;;;;;;;5023709;28;20033;-79
2022/03/24 12:53:12;;;;;;;35.05;21.10;;;;;;;;;;5018803;28;20041;-78
2022/03/24 12:55:45;;;;;;;33.72;20.10;;;;;;;;;;5015860;28;20033;-79
2022/03/24 12:58:19;;;;;;;32.28;20.42;;;;;;;;;;5019483;28;20055;-79
2022/03/24 13:00:50;;;;;;;39.28;21.27;;;;;;;;;;5012146;28;20099;-77
2022/03/24 13:03:17;;;;;;;;;;;;;;;;;;5022349;28;20041;-79
2022/03/24 13:05:53;;;;;;;32.92;19.23;;;;;;;;;;5017778;28;19921;-76
2022/03/24 13:08:19;;;;;;;35.47;20.55;;;;;;;;;;5003036;28;20041;-78
2022/03/24 13:11:01;;;;;;;34.03;19.88;;;;;;;;;;5018256;28;20082;-79
2022/03/24 13:13:28;;;;;;;33.08;18.83;;;;;;;;;;5022964;28;20095;-78
2022/03/24 13:16:00;;;;;;;37.40;20.60;;;;;;;;;;5015529;28;20038;-77
2022/03/24 13:18:27;;;;;;;35.95;21.55;;;;;;;;;;5019292;28;20454;-77
2022/03/24 13:20:56;;;;;;;36.65;19.92;;;;;;;;;;5021245;28;20132;-76
2022/03/24 13:23:29;;;;;;;41.83;20.15;;;;;;;;;;4999249;28;20033;-77
2022/03/24 13:25:56;;;;;;;34.53;20.35;;;;;;;;;;5012094;28;20037;-77
2022/03/24 13:28:26;;;;;;;43.40;19.88;;;;;;;;;;5020028;28;20044;-78
2022/03/24 13:30:53;;;;;;;29.52;18.73;;;;;;;;;;5021506;28;20082;-79
2022/03/24 13:33:20;;;;;;;32.47;20.42;;;;;;;;;;5021244;28;20038;-79
2022/03/24 13:35:50;;;;;;;30.15;17.60;;;;;;;;;;5015794;28;20029;-77
2022/03/24 13:38:24;;;;;;;33.22;18.23;;;;;;;;;;5016089;28;20061;-76
2022/03/24 13:40:54;;;;;;;32.72;18.58;;;;;;;;;;5019161;28;20029;-79
2022/03/24 13:43:21;;;;;;;28.63;17.95;;;;;;;;;;5016220;28;20021;-78
2022/03/24 13:45:48;;;;;;;36.13;19.88;;;;;;;;;;5015548;28;20044;-78
2022/03/24 13:48:17;;;;;;;35.55;19.15;;;;;;;;;;5012693;28;20029;-79
2022/03/24 13:50:45;;;;;;;30.20;18.52;;;;;;;;;;5017955;28;20037;-77
2022/03/24 13:53:20;;;;;;;31.63;17.95;;;;;;;;;;5014274;28;20084;-79
2022/03/24 13:56:03;;;;;;;31.27;18.80;;;;;;;;;;5020395;28;20087;-79
2022/03/24 13:58:29;;;;;;;25.50;16.42;;;;;;;;;;5017669;28;20444;-78
2022/03/24 14:01:04;;;;;;;31.17;17.48;;;;;;;;;;5016100;28;20041;-78
2022/03/24 14:03:30;;;;;;;28.30;17.35;;;;;;;;;;5005038;28;20034;-80
2022/03/24 14:06:00;;;;;;;29.48;17.38;;;;;;;;;;5017011;28;21274;-80
2022/03/24 14:08:34;;;;;;;34.80;18.30;;;;;;;;;;5029387;28;20120;-78
2022/03/24 14:11:07;;;;;;;33.13;17.75;;;;;;;;;;5028468;28;20038;-78
2022/03/24 14:13:40;;;;;;;31.30;18.25;;;;;;;;;;5022011;28;20050;-78
2022/03/24 14:16:19;;;;;;;31.67;17.10;;;;;;;;;;5030183;28;20021;-78
2022/03/24 14:19:04;;;;;;;27.63;15.98;;;;;;;;;;5023158;28;20033;-79
2022/03/24 14:21:48;;;;;;;33.67;16.60;;;;;;;;;;5020731;28;20025;-79
2022/03/24 14:24:42;;;;;;;26.30;15.18;;;;;;;;;;5023002;28;20490;-79
2022/03/24 14:27:14;;;;;;;36.13;17.88;;;;;;;;;;5032130;28;20052;-78
2022/03/24 14:30:02;;;;;;;30.83;17.67;;;;;;;;;;5023834;28;20036;-78
2022/03/24 14:32:30;;;;;;;26.70;16.27;;;;;;;;;;5019949;28;20041;-79
2022/03/24 14:35:29;;;;;;;31.83;17.67;;;;;;;;;;5037014;28;20049;-78
2022/03/24 14:37:58;;;;;;;28.63;16.73;;;;;;;;;;5022507;28;20021;-77
2022/03/24 14:40:37;;;;;;;27.85;17.10;;;;;;;;;;5045731;28;20301;-78
2022/03/24 14:43:19;;;;;;;25.25;15.75;;;;;;;;;;5044015;28;20033;-78
2022/03/24 14:45:48;;;;;;;24.85;15.30;;;;;;;;;;5025023;28;20484;-77
2022/03/24 14:48:14;;;;;;;25.90;15.65;;;;;;;;;;5026905;28;20037;-78